Boyarka, Ukraine
Current Conditions -  °F | °C
As of 6:00 AM on Saturday 25 Oct 2014 (Local Time) from UKKK Reporting Station
Clear Clear  
Wind Chill:   Ceiling: Unl
Heat Index: 19°   Visibility: 6mi
Dew Point: 16°   Wind: 9mph
Humidity: 86%   Direction: 80°E
Pressure: 30.56"   Gusts: NA
Location:  50.32°N, 30.32°E
Report Text: UKKK 250300Z 08004MPS CAVOK M07/M09 Q1035 08CLRD70 NOSIG
Loading
Personal Weather Stations






























Interactive Weather Map
Tropical Storm Tracking
New forecast layout! Learn more

10-Day Weather Forecast

Advertisements
Track Severe Weather on mobile